Time;durP1;ratioP1;P1;durP2;ratioP2;P2;SDS_P1;SDS_P2;PMS_P1;PMS_P2;Temp;Humidity;BMP_temperature;BMP_pressure;BME280_temperature;BME280_humidity;BME280_pressure;Samples;Min_cycle;Max_cycle;Signal;HPM_P1;HPM_P2
2022/04/06 00:00:27;;;;;;;;;;;;;;;9.49;100.00;100561.66;5117009;28;19999;-67
2022/04/06 00:02:53;;;;;;;;;;;;;;;9.45;100.00;100565.38;5132132;27;20289;-67
2022/04/06 00:05:18;;;;;;;;;;;;;;;9.44;100.00;100568.94;5116863;28;19922;-66
2022/04/06 00:07:43;;;;;;;;;;;;;;;9.53;100.00;100557.09;5110827;28;19922;-68
2022/04/06 00:10:09;;;;;;;;;;;;;;;9.51;100.00;100562.47;5134823;27;19966;-67
2022/04/06 00:12:36;;;;;;;;;;;;;;;9.49;100.00;100552.84;5134563;28;19916;-68
2022/04/06 00:15:01;;;;;;;;;;;;;;;9.55;100.00;100549.94;5131936;28;19976;-67
2022/04/06 00:17:27;;;;;;;;;;;;;;;9.49;100.00;100553.72;5116906;28;19919;-67
2022/04/06 00:19:52;;;;;;;;;;;;;;;9.48;100.00;100548.47;5135245;28;19923;-68
2022/04/06 00:22:17;;;;;;;;;;;;;;;9.47;100.00;100544.09;5135326;28;20434;-67
2022/04/06 00:24:42;;;;;;;;;;;;;;;9.50;100.00;100533.38;5131635;28;19915;-67
2022/04/06 00:27:11;;;;;;;;;;;;;;;9.49;100.00;100535.16;5128057;28;19915;-68
2022/04/06 00:29:36;;;;;;;;;;;;;;;9.52;100.00;100534.19;5135022;28;19915;-67
2022/04/06 00:32:18;;;;;;;;;;;;;;;9.54;100.00;100545.56;5134902;28;19926;-67
2022/04/06 00:37:27;;;;;;;;;;;;;;;9.53;100.00;100538.53;5130027;28;19968;-67
2022/04/06 00:42:55;;;;;;;;;;;;;;;9.52;100.00;100528.88;5125359;28;20424;-67
2022/04/06 00:45:21;;;;;;;;;;;;;;;9.58;100.00;100525.94;5116296;28;20010;-68
2022/04/06 00:47:47;;;;;;;;;;;;;;;9.54;100.00;100519.03;5126040;28;19982;-68
2022/04/06 00:50:12;;;;;;;;;;;;;;;9.48;100.00;100516.66;5114732;28;19916;-68
2022/04/06 00:52:39;;;;;;;;;;;;;;;9.49;100.00;100511.28;5114347;28;19915;-69
2022/04/06 00:55:04;;;;;;;;;;;;;;;9.55;100.00;100503.06;5114264;28;20000;-68
2022/04/06 00:57:29;;;;;;;;;;;;;;;9.57;100.00;100503.00;5114205;28;19916;-67
2022/04/06 00:59:58;;;;;;;;;;;;;;;9.55;100.00;100503.06;5113700;28;19920;-67
2022/04/06 01:02:24;;;;;;;;;;;;;;;9.54;100.00;100501.34;5095803;28;20022;-67
2022/04/06 01:04:49;;;;;;;;;;;;;;;9.54;100.00;100488.09;5113897;28;20334;-67
2022/04/06 01:07:15;;;;;;;;;;;;;;;9.47;100.00;100488.44;5113687;28;20346;-68
2022/04/06 01:09:40;;;;;;;;;;;;;;;9.58;100.00;100492.31;5114042;28;19915;-68
2022/04/06 01:12:06;;;;;;;;;;;;;;;9.53;100.00;100485.53;5116242;28;19920;-67
2022/04/06 01:14:49;;;;;;;;;;;;;;;9.52;100.00;100482.00;5099127;28;19982;-67
2022/04/06 01:17:14;;;;;;;;;;;;;;;9.48;100.00;100480.41;5117880;28;20289;-67
2022/04/06 01:19:53;;;;;;;;;;;;;;;9.40;100.00;100489.63;5114258;28;19916;-67
2022/04/06 01:22:19;;;;;;;;;;;;;;;9.47;100.00;100483.97;5096070;28;19931;-67
2022/04/06 01:24:45;;;;;;;;;;;;;;;9.47;100.00;100485.78;5113451;28;19920;-68
2022/04/06 01:27:10;;;;;;;;;;;;;;;9.42;100.00;100477.19;5095508;28;19916;-67
2022/04/06 01:29:36;;;;;;;;;;;;;;;9.37;100.00;100492.41;5095730;28;19916;-67
2022/04/06 01:32:11;;;;;;;;;;;;;;;9.42;100.00;100480.69;5096907;28;19916;-67
2022/04/06 01:34:37;;;;;;;;;;;;;;;9.32;100.00;100480.22;5095811;28;19920;-68
2022/04/06 01:37:06;;;;;;;;;;;;;;;9.34;100.00;100480.16;5097030;28;19927;-68
2022/04/06 01:39:32;;;;;;;;;;;;;;;9.32;100.00;100474.94;5097007;28;20366;-67
2022/04/06 01:41:58;;;;;;;;;;;;;;;9.37;100.00;100487.09;5095346;28;19924;-67
2022/04/06 01:44:23;;;;;;;;;;;;;;;9.23;100.00;100488.56;5096749;28;19969;-67
2022/04/06 01:46:48;;;;;;;;;;;;;;;9.27;100.00;100481.34;5103457;28;19959;-67
2022/04/06 01:52:12;;;;;;;;;;;;;;;9.27;100.00;100479.56;5117507;28;19927;-67
2022/04/06 01:54:48;;;;;;;;;;;;;;;9.28;100.00;100472.50;5116880;28;19916;-67
2022/04/06 01:57:14;;;;;;;;;;;;;;;9.26;100.00;100471.69;5116732;28;20289;-67
2022/04/06 01:59:39;;;;;;;;;;;;;;;9.29;100.00;100467.13;5115895;28;20015;-67
2022/04/06 02:02:05;;;;;;;;;;;;;;;9.27;100.00;100465.44;5115919;28;19919;-68
2022/04/06 02:04:31;;;;;;;;;;;;;;;9.25;100.00;100468.16;5116962;28;19915;-67
2022/04/06 02:06:56;;;;;;;;;;;;;;;9.25;100.00;100462.00;5116829;28;19974;-67
2022/04/06 02:09:21;;;;;;;;;;;;;;;9.27;100.00;100461.00;5116798;28;20023;-68
2022/04/06 02:11:47;;;;;;;;;;;;;;;9.21;100.00;100449.81;5116965;28;20003;-67
2022/04/06 02:14:13;;;;;;;;;;;;;;;9.27;100.00;100452.19;5117017;28;19938;-67
2022/04/06 02:16:38;;;;;;;;;;;;;;;9.21;100.00;100466.59;5116585;28;19923;-68
2022/04/06 02:19:04;;;;;;;;;;;;;;;9.25;100.00;100449.63;5115112;28;19916;-67
2022/04/06 02:21:29;;;;;;;;;;;;;;;9.26;100.00;100448.66;5115278;28;19919;-67
2022/04/06 02:23:54;;;;;;;;;;;;;;;9.25;100.00;100441.66;5115646;28;20010;-66
2022/04/06 02:26:20;;;;;;;;;;;;;;;9.20;100.00;100433.03;5116506;28;20288;-67
2022/04/06 02:28:45;;;;;;;;;;;;;;;9.20;100.00;100434.84;5115979;28;19927;-67
2022/04/06 02:31:10;;;;;;;;;;;;;;;9.20;100.00;100430.41;5114936;28;19916;-67
2022/04/06 02:33:36;;;;;;;;;;;;;;;9.25;100.00;100428.41;5115996;28;19961;-67
2022/04/06 02:36:01;;;;;;;;;;;;;;;9.26;100.00;100427.47;5114825;28;19922;-66
2022/04/06 02:38:26;;;;;;;;;;;;;;;9.21;100.00;100429.50;5115813;28;20423;-66
2022/04/06 02:40:51;;;;;;;;;;;;;;;9.26;100.00;100413.38;5114389;28;19935;-67
2022/04/06 02:43:17;;;;;;;;;;;;;;;9.19;100.00;100409.28;5116140;28;19916;-66
2022/04/06 02:45:42;;;;;;;;;;;;;;;9.06;100.00;100401.00;5116029;28;19939;-66
2022/04/06 02:48:07;;;;;;;;;;;;;;;8.93;100.00;100393.66;5114631;28;19919;-67
2022/04/06 02:50:32;;;;;;;;;;;;;;;8.88;100.00;100393.00;5116254;28;19922;-66
2022/04/06 02:52:58;;;;;;;;;;;;;;;8.83;100.00;100376.44;5115865;28;19971;-67
2022/04/06 02:55:23;;;;;;;;;;;;;;;8.85;100.00;100393.13;5115859;28;19938;-66
2022/04/06 02:57:48;;;;;;;;;;;;;;;8.82;100.00;100382.66;5115795;28;20014;-67
2022/04/06 03:00:14;;;;;;;;;;;;;;;8.81;100.00;100378.28;5115730;28;19965;-67
2022/04/06 03:02:39;;;;;;;;;;;;;;;8.81;100.00;100378.28;5116068;28;20044;-68
2022/04/06 03:05:04;;;;;;;;;;;;;;;8.75;100.00;100368.81;5115555;28;20390;-68
2022/04/06 03:07:30;;;;;;;;;;;;;;;8.79;100.00;100372.22;5115715;28;19923;-67
2022/04/06 03:09:55;;;;;;;;;;;;;;;8.80;100.00;100365.97;5114288;28;19926;-66
2022/04/06 03:12:20;;;;;;;;;;;;;;;8.76;100.00;100367.03;5115712;28;19916;-66
2022/04/06 03:14:45;;;;;;;;;;;;;;;8.80;100.00;100361.53;5115263;28;20018;-67
2022/04/06 03:17:11;;;;;;;;;;;;;;;8.72;100.00;100361.00;5115396;28;19966;-67
2022/04/06 03:19:36;;;;;;;;;;;;;;;8.83;100.00;100352.59;5113903;28;19994;-67
2022/04/06 03:22:02;;;;;;;;;;;;;;;8.68;100.00;100354.09;5113776;28;19927;-67
2022/04/06 03:24:27;;;;;;;;;;;;;;;8.71;100.00;100358.44;5115433;28;19978;-67
2022/04/06 03:26:53;;;;;;;;;;;;;;;8.75;100.00;100358.22;5115133;28;19942;-67
2022/04/06 03:29:18;;;;;;;;;;;;;;;8.65;100.00;100350.75;5115101;28;19923;-67
2022/04/06 03:31:43;;;;;;;;;;;;;;;8.74;100.00;100350.34;5114852;28;20317;-66
2022/04/06 03:34:08;;;;;;;;;;;;;;;8.80;100.00;100350.09;5113394;28;19923;-67
2022/04/06 03:36:33;;;;;;;;;;;;;;;8.77;100.00;100344.94;5114528;28;19924;-67
2022/04/06 03:38:59;;;;;;;;;;;;;;;8.88;100.00;100351.50;5113724;28;19916;-66
2022/04/06 03:41:24;;;;;;;;;;;;;;;8.84;100.00;100355.19;5110524;28;20010;-68
2022/04/06 03:43:49;;;;;;;;;;;;;;;8.87;100.00;100359.50;5114829;28;19972;-66
2022/04/06 03:46:14;;;;;;;;;;;;;;;8.93;100.00;100348.63;5113381;28;19919;-67
2022/04/06 03:48:40;;;;;;;;;;;;;;;8.89;100.00;100353.19;5113268;28;20389;-68
2022/04/06 03:51:05;;;;;;;;;;;;;;;8.91;100.00;100351.34;5114544;28;19920;-68
2022/04/06 03:53:30;;;;;;;;;;;;;;;8.94;100.00;100353.88;5108690;28;19927;-67
2022/04/06 03:55:55;;;;;;;;;;;;;;;8.89;100.00;100352.31;5113333;28;19922;-68
2022/04/06 03:58:21;;;;;;;;;;;;;;;8.85;100.00;100350.75;5114806;28;19986;-68
2022/04/06 04:00:46;;;;;;;;;;;;;;;8.93;100.00;100346.84;5114537;28;19916;-69
2022/04/06 04:03:11;;;;;;;;;;;;;;;8.92;100.00;100357.50;5114212;28;19969;-67
2022/04/06 04:05:36;;;;;;;;;;;;;;;8.90;100.00;100336.38;5114026;28;20343;-68
2022/04/06 04:08:02;;;;;;;;;;;;;;;8.96;100.00;100344.06;5114162;28;20251;-67
2022/04/06 04:10:27;;;;;;;;;;;;;;;8.97;100.00;100329.03;5114079;28;19974;-66
2022/04/06 04:12:52;;;;;;;;;;;;;;;8.97;100.00;100334.31;5113890;28;20391;-67
2022/04/06 04:15:18;;;;;;;;;;;;;;;8.97;100.00;100335.19;5114198;28;19916;-67
2022/04/06 04:17:43;;;;;;;;;;;;;;;8.87;100.00;100331.22;5114113;28;19972;-67
2022/04/06 04:20:09;;;;;;;;;;;;;;;8.87;100.00;100325.91;5114341;28;19923;-67
2022/04/06 04:22:34;;;;;;;;;;;;;;;8.83;100.00;100327.00;5131976;28;20044;-66
2022/04/06 04:24:59;;;;;;;;;;;;;;;8.79;100.00;100325.38;5132451;28;20007;-67
2022/04/06 04:27:24;;;;;;;;;;;;;;;8.84;100.00;100327.84;5136344;28;19926;-67
2022/04/06 04:29:50;;;;;;;;;;;;;;;8.86;100.00;100328.63;5113413;28;20003;-68
2022/04/06 04:32:16;;;;;;;;;;;;;;;8.83;100.00;100321.69;5131778;28;19926;-68
2022/04/06 04:34:41;;;;;;;;;;;;;;;8.89;100.00;100315.25;5123255;28;19919;-66
2022/04/06 04:37:06;;;;;;;;;;;;;;;8.90;100.00;100311.69;5131568;28;19919;-68
2022/04/06 04:39:31;;;;;;;;;;;;;;;8.89;100.00;100310.81;5116109;28;19919;-66
2022/04/06 04:41:57;;;;;;;;;;;;;;;8.87;100.00;100309.19;5134724;28;19923;-68
2022/04/06 04:44:22;;;;;;;;;;;;;;;8.95;100.00;100302.59;5116320;28;19916;-68
2022/04/06 04:46:47;;;;;;;;;;;;;;;8.99;100.00;100305.97;5120076;27;20001;-68
2022/04/06 04:49:13;;;;;;;;;;;;;;;8.99;100.00;100300.69;5138638;27;19915;-68
2022/04/06 04:51:38;;;;;;;;;;;;;;;8.96;100.00;100299.03;5138359;27;19938;-68
2022/04/06 04:54:03;;;;;;;;;;;;;;;8.97;100.00;100290.16;5138244;27;20393;-70
2022/04/06 04:56:30;;;;;;;;;;;;;;;8.99;100.00;100298.03;5138220;27;19915;-68
2022/04/06 04:58:56;;;;;;;;;;;;;;;8.99;100.00;100296.25;5138659;27;19919;-70
2022/04/06 05:01:21;;;;;;;;;;;;;;;8.95;100.00;100293.81;5138753;27;19947;-69
2022/04/06 05:03:47;;;;;;;;;;;;;;;9.01;100.00;100294.38;5139433;27;20362;-69
2022/04/06 05:06:12;;;;;;;;;;;;;;;9.03;100.00;100295.19;5120404;27;20299;-68
2022/04/06 05:08:37;;;;;;;;;;;;;;;8.93;100.00;100290.38;5119614;27;20359;-69
2022/04/06 05:11:03;;;;;;;;;;;;;;;8.99;100.00;100290.97;5138222;27;19968;-69
2022/04/06 05:13:28;;;;;;;;;;;;;;;8.98;100.00;100299.81;5138284;27;20374;-70
2022/04/06 05:15:53;;;;;;;;;;;;;;;9.01;100.00;100294.38;5138007;27;19931;-69
2022/04/06 05:18:18;;;;;;;;;;;;;;;9.00;100.00;100278.56;5137681;27;19915;-69
2022/04/06 05:20:44;;;;;;;;;;;;;;;8.95;100.00;100302.59;5119372;27;19920;-69
2022/04/06 05:23:09;;;;;;;;;;;;;;;8.94;100.00;100285.00;5139095;27;19919;-69
2022/04/06 05:25:35;;;;;;;;;;;;;;;9.00;100.00;100287.38;5138156;27;19926;-69
2022/04/06 05:28:00;;;;;;;;;;;;;;;9.06;100.00;100281.78;5120212;27;20010;-71
2022/04/06 05:30:25;;;;;;;;;;;;;;;9.02;100.00;100284.66;5118966;27;20378;-73
2022/04/06 05:32:52;;;;;;;;;;;;;;;9.01;100.00;100304.13;5137633;27;20358;-69
2022/04/06 05:35:17;;;;;;;;;;;;;;;9.03;100.00;100279.28;5137883;27;20014;-70
2022/04/06 05:37:44;;;;;;;;;;;;;;;9.15;100.00;100284.00;5119750;27;20089;-69
2022/04/06 05:40:10;;;;;;;;;;;;;;;9.05;100.00;100285.38;5137711;27;19916;-69
2022/04/06 05:42:35;;;;;;;;;;;;;;;9.12;100.00;100285.97;5118848;27;19969;-70
2022/04/06 05:45:01;;;;;;;;;;;;;;;9.16;100.00;100283.09;5137037;27;19916;-69
2022/04/06 05:47:26;;;;;;;;;;;;;;;9.07;100.00;100285.31;5120214;27;20403;-72
2022/04/06 05:49:52;;;;;;;;;;;;;;;9.13;100.00;100277.94;5118841;27;19915;-70
2022/04/06 05:52:17;;;;;;;;;;;;;;;9.17;100.00;100274.22;5118916;27;20005;-70
2022/04/06 05:54:42;;;;;;;;;;;;;;;9.19;100.00;100275.00;5131275;27;19965;-70
2022/04/06 05:57:07;;;;;;;;;;;;;;;9.22;100.00;100263.41;5098176;28;20227;-70
2022/04/06 05:59:32;;;;;;;;;;;;;;;9.25;100.00;100265.91;5118977;28;19922;-70
2022/04/06 06:01:58;;;;;;;;;;;;;;;9.22;100.00;100261.63;5117607;28;20243;-69
2022/04/06 06:04:23;;;;;;;;;;;;;;;9.30;100.00;100264.78;5116682;28;19915;-70
2022/04/06 06:06:49;;;;;;;;;;;;;;;9.20;100.00;100258.19;5112798;27;19964;-70
2022/04/06 06:09:15;;;;;;;;;;;;;;;9.26;100.00;100254.41;5100394;28;19916;-69
2022/04/06 06:11:41;;;;;;;;;;;;;;;9.17;100.00;100257.47;5116783;28;19916;-69
2022/04/06 06:14:07;;;;;;;;;;;;;;;9.30;100.00;100248.88;5097885;28;20008;-69
2022/04/06 06:16:32;;;;;;;;;;;;;;;9.31;100.00;100253.25;5098409;28;19970;-69
2022/04/06 06:18:57;;;;;;;;;;;;;;;9.38;100.00;100253.81;5098027;28;20363;-69
2022/04/06 06:21:22;;;;;;;;;;;;;;;9.29;100.00;100249.81;5115680;28;19924;-70
2022/04/06 06:23:47;;;;;;;;;;;;;;;9.24;100.00;100243.88;5098026;28;20551;-69
2022/04/06 06:26:13;;;;;;;;;;;;;;;9.39;100.00;100238.78;5116319;28;19915;-69
2022/04/06 06:28:39;;;;;;;;;;;;;;;9.36;100.00;100236.28;5115896;28;20254;-69
2022/04/06 06:31:04;;;;;;;;;;;;;;;9.47;100.00;100232.16;5097580;28;19916;-70
2022/04/06 06:33:29;;;;;;;;;;;;;;;9.48;100.00;100227.72;5100659;27;19920;-69
2022/04/06 06:35:54;;;;;;;;;;;;;;;9.51;100.00;100219.63;5136516;27;19974;-69
2022/04/06 06:38:19;;;;;;;;;;;;;;;9.42;100.00;100243.94;5136139;27;19915;-69
2022/04/06 06:40:46;;;;;;;;;;;;;;;9.49;100.00;100229.44;5136248;27;19919;-70
2022/04/06 06:43:11;;;;;;;;;;;;;;;9.52;100.00;100221.38;5118755;27;19916;-73
2022/04/06 06:45:36;;;;;;;;;;;;;;;9.54;100.00;100228.31;5117893;27;19960;-70
2022/04/06 06:48:03;;;;;;;;;;;;;;;9.62;100.00;100233.22;5121545;27;19923;-69
2022/04/06 06:50:28;;;;;;;;;;;;;;;9.53;100.00;100234.56;5123221;27;20006;-69
2022/04/06 06:52:53;;;;;;;;;;;;;;;9.60;100.00;100235.09;5115537;28;20024;-69
2022/04/06 06:55:19;;;;;;;;;;;;;;;9.53;100.00;100229.25;5115548;28;20315;-68
2022/04/06 06:57:44;;;;;;;;;;;;;;;9.62;100.00;100239.41;5097111;28;19926;-68
2022/04/06 07:00:11;;;;;;;;;;;;;;;9.29;100.00;100231.28;5127955;27;19915;-68
2022/04/06 07:02:37;;;;;;;;;;;;;;;9.19;100.00;100243.22;5100046;27;19920;-70
2022/04/06 07:05:02;;;;;;;;;;;;;;;9.03;100.00;100239.56;5137147;27;19986;-69
2022/04/06 07:07:27;;;;;;;;;;;;;;;8.86;100.00;100249.19;5092805;27;19955;-69
2022/04/06 07:09:52;;;;;;;;;;;;;;;8.75;100.00;100267.34;5134736;27;19915;-69
2022/04/06 07:12:17;;;;;;;;;;;;;;;8.70;100.00;100262.25;5119395;27;19915;-69
2022/04/06 07:14:43;;;;;;;;;;;;;;;8.74;100.00;100263.84;5127766;27;19981;-69
2022/04/06 07:17:08;;;;;;;;;;;;;;;8.74;100.00;100263.84;5119124;27;19916;-69
2022/04/06 07:19:33;;;;;;;;;;;;;;;8.71;100.00;100268.41;5119096;27;20312;-68
2022/04/06 07:21:58;;;;;;;;;;;;;;;8.77;100.00;100268.16;5136779;27;20290;-67
2022/04/06 07:24:23;;;;;;;;;;;;;;;8.83;100.00;100274.03;5136677;27;19923;-69
2022/04/06 07:26:49;;;;;;;;;;;;;;;8.88;100.00;100277.34;5122143;27;19938;-69
2022/04/06 07:29:15;;;;;;;;;;;;;;;8.92;100.00;100268.31;5132738;27;19915;-68
2022/04/06 07:31:44;;;;;;;;;;;;;;;8.94;100.00;100282.34;5115637;28;20278;-68
2022/04/06 07:34:09;;;;;;;;;;;;;;;8.89;100.00;100268.47;5127471;27;19916;-69
2022/04/06 07:36:34;;;;;;;;;;;;;;;8.67;100.00;100254.44;5136023;27;20306;-68
2022/04/06 07:39:02;;;;;;;;;;;;;;;8.65;100.00;100274.00;5115431;27;19923;-68
2022/04/06 07:41:27;;;;;;;;;;;;;;;8.54;100.00;100278.88;5113954;27;19924;-68
2022/04/06 07:43:52;;;;;;;;;;;;;;;8.53;100.00;100285.97;5117054;27;20386;-69
2022/04/06 07:46:17;;;;;;;;;;;;;;;8.47;100.00;100280.94;5131572;27;19922;-68
2022/04/06 07:48:43;;;;;;;;;;;;;;;8.52;100.00;100291.31;5117547;27;19915;-68
2022/04/06 07:51:08;;;;;;;;;;;;;;;8.50;100.00;100279.94;5127488;27;19922;-70
2022/04/06 07:53:34;;;;;;;;;;;;;;;8.53;100.00;100267.44;5109853;28;19919;-69
2022/04/06 07:55:59;;;;;;;;;;;;;;;8.60;100.00;100281.25;5118290;27;19915;-69
2022/04/06 07:58:24;;;;;;;;;;;;;;;8.65;100.00;100272.19;5116901;27;19926;-68
2022/04/06 08:00:49;;;;;;;;;;;;;;;8.74;100.00;100269.16;5116821;27;19915;-68
2022/04/06 08:03:15;;;;;;;;;;;;;;;8.76;100.00;100274.38;5112516;28;19924;-69
2022/04/06 08:05:40;;;;;;;;;;;;;;;8.76;100.00;100269.09;5115800;28;19915;-68
2022/04/06 08:08:05;;;;;;;;;;;;;;;8.76;100.00;100269.91;5130720;27;19960;-68
2022/04/06 08:10:31;;;;;;;;;;;;;;;8.77;100.00;100273.44;5098748;28;19916;-68
2022/04/06 08:12:56;;;;;;;;;;;;;;;8.79;100.00;100264.47;5128485;27;20290;-68
2022/04/06 08:15:21;;;;;;;;;;;;;;;8.84;100.00;100265.16;5117106;28;20012;-68
2022/04/06 08:17:47;;;;;;;;;;;;;;;8.92;100.00;100272.75;5135117;28;19922;-68
2022/04/06 08:20:13;;;;;;;;;;;;;;;8.97;100.00;100282.22;5107392;27;19919;-68
2022/04/06 08:22:42;;;;;;;;;;;;;;;8.97;100.00;100268.97;5138431;27;19923;-68
2022/04/06 08:25:07;;;;;;;;;;;;;;;8.97;100.00;100266.31;5108911;27;20032;-69
2022/04/06 08:27:36;;;;;;;;;;;;;;;8.97;100.00;100271.63;5132929;27;19920;-68
2022/04/06 08:30:01;;;;;;;;;;;;;;;8.88;100.00;100265.88;5139520;27;19945;-68
2022/04/06 08:32:30;;;;;;;;;;;;;;;8.83;100.00;100271.38;5120578;27;19916;-68
2022/04/06 08:34:55;;;;;;;;;;;;;;;8.82;100.00;100268.81;5139320;27;19995;-67
2022/04/06 08:37:20;;;;;;;;;;;;;;;8.76;100.00;100288.44;5136074;27;19984;-68
2022/04/06 08:39:45;;;;;;;;;;;;;;;8.69;100.00;100300.25;5138571;27;19961;-68
2022/04/06 08:42:11;;;;;;;;;;;;;;;8.69;100.00;100302.03;5138585;27;19975;-68
2022/04/06 08:44:54;;;;;;;;;;;;;;;8.71;100.00;100300.19;5120141;27;20286;-67
2022/04/06 08:47:20;;;;;;;;;;;;;;;8.66;100.00;100308.34;5120027;27;19927;-68
2022/04/06 08:49:45;;;;;;;;;;;;;;;8.67;100.00;100311.81;5138583;27;19920;-68
2022/04/06 08:52:11;;;;;;;;;;;;;;;8.70;100.00;100315.19;5138114;27;19940;-69
2022/04/06 08:54:37;;;;;;;;;;;;;;;8.67;100.00;100315.34;5138263;27;19953;-67
2022/04/06 08:57:02;;;;;;;;;;;;;;;8.65;100.00;100298.66;5138296;27;19959;-68
2022/04/06 08:59:28;;;;;;;;;;;;;;;8.67;100.00;100309.16;5120468;27;19916;-70
2022/04/06 09:01:53;;;;;;;;;;;;;;;8.74;100.00;100310.63;5140056;27;19922;-70
2022/04/06 09:04:20;;;;;;;;;;;;;;;8.75;100.00;100307.94;5120361;27;19923;-69
2022/04/06 09:06:46;;;;;;;;;;;;;;;8.80;100.00;100311.25;5138486;27;20019;-69
2022/04/06 09:09:19;;;;;;;;;;;;;;;8.77;100.00;100311.38;5104787;28;19915;-70
2022/04/06 09:11:44;;;;;;;;;;;;;;;8.80;100.00;100316.53;5099410;28;19968;-69
2022/04/06 09:14:10;;;;;;;;;;;;;;;8.82;100.00;100319.13;5117758;28;20009;-69
2022/04/06 09:16:35;;;;;;;;;;;;;;;8.89;100.00;100321.41;5101378;28;20010;-71
2022/04/06 09:19:11;;;;;;;;;;;;;;;8.92;100.00;100309.81;5117075;28;20282;-70
2022/04/06 09:21:41;;;;;;;;;;;;;;;8.96;100.00;100322.88;5119500;27;19919;-73
2022/04/06 09:24:12;;;;;;;;;;;;;;;9.02;100.00;100319.09;5121722;27;19920;-68
2022/04/06 09:26:37;;;;;;;;;;;;;;;9.10;100.00;100315.19;5119879;27;19915;-69
2022/04/06 09:29:03;;;;;;;;;;;;;;;9.20;100.00;100310.31;5117440;28;19916;-68
2022/04/06 09:31:36;;;;;;;;;;;;;;;9.22;100.00;100304.03;5133102;27;20401;-68
2022/04/06 09:34:02;;;;;;;;;;;;;;;9.43;100.00;100301.31;5138283;27;19916;-69
2022/04/06 09:36:28;;;;;;;;;;;;;;;9.44;100.00;100301.22;5137977;27;20354;-69
2022/04/06 09:38:54;;;;;;;;;;;;;;;9.46;100.00;100287.91;5137865;27;19998;-69
2022/04/06 09:41:19;;;;;;;;;;;;;;;9.54;100.00;100296.34;5119493;27;19920;-69
2022/04/06 09:43:45;;;;;;;;;;;;;;;9.56;100.00;100265.34;5138428;27;20002;-68
2022/04/06 09:49:06;;;;;;;;;;;;;;;9.68;100.00;100259.44;5138702;27;19921;-68
2022/04/06 09:51:31;;;;;;;;;;;;;;;9.68;100.00;100260.31;5138148;27;19915;-68
2022/04/06 09:53:56;;;;;;;;;;;;;;;9.77;100.00;100243.09;5118602;27;19919;-68
2022/04/06 09:56:22;;;;;;;;;;;;;;;9.81;100.00;100240.22;5118369;27;19978;-69
2022/04/06 09:58:48;;;;;;;;;;;;;;;9.92;100.00;100248.53;5137519;27;19991;-69
2022/04/06 10:01:16;;;;;;;;;;;;;;;10.01;100.00;100231.25;5137423;27;19916;-69
2022/04/06 10:03:48;;;;;;;;;;;;;;;9.96;100.00;100235.97;5137284;27;19915;-68
2022/04/06 10:06:13;;;;;;;;;;;;;;;9.94;100.00;100219.25;5132218;27;19922;-69
2022/04/06 10:08:39;;;;;;;;;;;;;;;9.95;100.00;100213.00;5139810;27;20014;-68
2022/04/06 10:11:05;;;;;;;;;;;;;;;10.05;100.00;100196.56;5116172;28;20445;-68
2022/04/06 10:13:31;;;;;;;;;;;;;;;10.29;100.00;100218.38;5125102;27;19922;-67
2022/04/06 10:15:57;;;;;;;;;;;;;;;10.60;100.00;100210.53;5125041;27;20739;-68
2022/04/06 10:18:23;;;;;;;;;;;;;;;10.85;100.00;100200.31;5098494;28;19942;-68
2022/04/06 10:20:55;;;;;;;;;;;;;;;11.13;100.00;100195.22;5116753;28;19920;-68
2022/04/06 10:23:26;;;;;;;;;;;;;;;10.82;100.00;100174.75;5122808;27;19921;-68
2022/04/06 10:25:54;;;;;;;;;;;;;;;10.67;100.00;100177.38;5136800;27;19938;-68
2022/04/06 10:28:20;;;;;;;;;;;;;;;10.47;100.00;100164.31;5119053;27;20007;-68
2022/04/06 10:31:04;;;;;;;;;;;;;;;10.47;100.00;100159.88;5137729;27;19926;-69
2022/04/06 10:33:30;;;;;;;;;;;;;;;10.34;100.00;100160.59;5135642;27;19941;-68
2022/04/06 10:36:15;;;;;;;;;;;;;;;10.31;100.00;100139.50;5126583;27;19915;-70
2022/04/06 10:38:40;;;;;;;;;;;;;;;10.36;100.00;100148.97;5119691;27;19972;-69
2022/04/06 10:41:06;;;;;;;;;;;;;;;10.32;100.00;100141.25;5137176;27;20343;-69
2022/04/06 10:43:34;;;;;;;;;;;;;;;10.47;100.00;100125.38;5119788;27;19916;-68
2022/04/06 10:45:59;;;;;;;;;;;;;;;10.50;100.00;100134.94;5098250;28;20301;-68
2022/04/06 10:48:25;;;;;;;;;;;;;;;10.63;100.00;100133.34;5100445;27;19934;-68
2022/04/06 10:50:50;;;;;;;;;;;;;;;10.59;100.00;100126.47;5135143;27;19916;-69
2022/04/06 10:53:18;;;;;;;;;;;;;;;10.77;100.00;100112.22;5118443;27;19923;-69
2022/04/06 10:55:56;;;;;;;;;;;;;;;10.94;100.00;100101.50;5136878;27;19919;-68
2022/04/06 10:58:23;;;;;;;;;;;;;;;11.24;100.00;100121.06;5136594;27;19916;-68
2022/04/06 11:01:09;;;;;;;;;;;;;;;11.39;100.00;100090.94;5137232;27;19916;-69
2022/04/06 11:03:39;;;;;;;;;;;;;;;11.34;100.00;100093.00;5117707;27;19915;-69
2022/04/06 11:06:04;;;;;;;;;;;;;;;11.42;100.00;100076.59;5097936;28;19923;-67
2022/04/06 11:11:45;;;;;;;;;;;;;;;11.39;100.00;100090.94;5116001;28;19918;-68
2022/04/06 11:14:11;;;;;;;;;;;;;;;11.24;100.00;100093.59;5129125;27;19915;-68
2022/04/06 11:16:41;;;;;;;;;;;;;;;11.34;100.00;100089.47;5136352;27;19919;-69
2022/04/06 11:19:06;;;;;;;;;;;;;;;11.19;100.00;100064.63;5117777;27;19919;-70
2022/04/06 11:21:32;;;;;;;;;;;;;;;10.93;100.00;100072.38;5118080;27;20257;-68
2022/04/06 11:23:57;;;;;;;;;;;;;;;10.93;100.00;100059.97;5135906;27;19937;-68
2022/04/06 11:26:23;;;;;;;;;;;;;;;10.83;100.00;100080.00;5135791;27;19969;-67
2022/04/06 11:28:58;;;;;;;;;;;;;;;10.50;100.00;100082.72;5136038;27;19946;-67
2022/04/06 11:31:23;;;;;;;;;;;;;;;10.45;100.00;100083.88;5136734;27;19960;-68
2022/04/06 11:33:49;;;;;;;;;;;;;;;10.31;100.00;100089.09;5117045;27;19916;-71
2022/04/06 11:36:18;;;;;;;;;;;;;;;10.35;100.00;100095.97;5119297;27;20105;-68
2022/04/06 11:38:50;;;;;;;;;;;;;;;10.16;100.00;100097.88;5136379;27;19916;-68
2022/04/06 11:41:15;;;;;;;;;;;;;;;10.13;100.00;100090.91;5117336;27;19919;-67
2022/04/06 11:43:42;;;;;;;;;;;;;;;10.14;100.00;100090.00;5116988;27;19922;-67
2022/04/06 11:46:07;;;;;;;;;;;;;;;10.19;100.00;100087.97;5136312;27;19923;-67
2022/04/06 11:48:43;;;;;;;;;;;;;;;10.25;100.00;100092.94;5117787;27;20199;-67
2022/04/06 11:51:08;;;;;;;;;;;;;;;10.36;100.00;100095.00;5137551;27;19916;-68
2022/04/06 11:53:34;;;;;;;;;;;;;;;10.43;100.00;100083.13;5137661;27;19922;-67
2022/04/06 11:56:01;;;;;;;;;;;;;;;10.26;100.00;100091.13;5136712;27;20366;-67
2022/04/06 11:58:34;;;;;;;;;;;;;;;10.04;100.00;100087.84;5137470;27;20419;-67
2022/04/06 12:01:06;;;;;;;;;;;;;;;9.94;100.00;100092.81;5136880;27;19922;-66
2022/04/06 12:03:32;;;;;;;;;;;;;;;9.86;100.00;100099.44;5137012;27;19915;-68
2022/04/06 12:05:57;;;;;;;;;;;;;;;9.89;100.00;100096.63;5136510;27;19923;-67
2022/04/06 12:08:23;;;;;;;;;;;;;;;9.67;100.00;100098.66;5117299;27;19915;-67
2022/04/06 12:10:49;;;;;;;;;;;;;;;9.63;100.00;100105.88;5135458;27;19922;-67
2022/04/06 12:13:15;;;;;;;;;;;;;;;9.66;100.00;100104.91;5135518;27;19916;-67
2022/04/06 12:15:41;;;;;;;;;;;;;;;9.56;100.00;100103.63;5135970;27;19922;-68
2022/04/06 12:18:06;;;;;;;;;;;;;;;9.50;100.00;100101.28;5135328;28;19916;-67
2022/04/06 12:20:32;;;;;;;;;;;;;;;9.41;100.00;100107.06;5135108;28;19974;-70
2022/04/06 12:23:01;;;;;;;;;;;;;;;9.43;100.00;100111.34;5135554;28;19915;-67
2022/04/06 12:25:27;;;;;;;;;;;;;;;9.36;100.00;100120.50;5116878;28;20332;-67
2022/04/06 12:28:07;;;;;;;;;;;;;;;9.42;100.00;100124.66;5116561;28;20352;-68
2022/04/06 12:30:33;;;;;;;;;;;;;;;9.48;100.00;100124.34;5135389;28;19918;-68
2022/04/06 12:32:58;;;;;;;;;;;;;;;9.48;100.00;100119.06;5135949;28;20275;-68
2022/04/06 12:35:24;;;;;;;;;;;;;;;9.53;100.00;100120.56;5135471;28;19915;-68
2022/04/06 12:37:49;;;;;;;;;;;;;;;9.55;100.00;100118.66;5135339;28;20056;-67
2022/04/06 12:40:24;;;;;;;;;;;;;;;9.70;100.00;100120.56;5118402;28;19927;-68
2022/04/06 12:42:49;;;;;;;;;;;;;;;9.66;100.00;100113.69;5116924;28;19916;-67
2022/04/06 12:45:15;;;;;;;;;;;;;;;9.79;100.00;100113.94;5135365;28;19919;-68